Time;durP1;ratioP1;P1;durP2;ratioP2;P2;SDS_P1;SDS_P2;PMS_P1;PMS_P2;Temp;Humidity;BMP_temperature;BMP_pressure;BME280_temperature;BME280_humidity;BME280_pressure;Samples;Min_cycle;Max_cycle;Signal;HPM_P1;HPM_P2
2022/01/04 00:00:44;;;;;;;11.32;1.60;;;;;;;3.72;81.67;98876.25;4829336;29;20045;-80
2022/01/04 00:03:10;;;;;;;15.90;1.50;;;;;;;3.97;82.66;98912.91;4847316;29;20372;-80
2022/01/04 00:05:37;;;;;;;16.15;1.40;;;;;;;3.92;83.01;98918.84;4827116;29;20038;-79
2022/01/04 00:08:07;;;;;;;12.55;1.65;;;;;;;3.90;82.18;98907.56;4829327;29;20030;-80
2022/01/04 00:10:32;;;;;;;8.27;1.45;;;;;;;3.86;81.78;98905.53;4846737;29;20030;-80
2022/01/04 00:15:43;;;;;;;11.50;1.30;;;;;;;3.92;79.84;98904.72;4823804;29;20054;-80
2022/01/04 00:18:09;;;;;;;14.25;1.98;;;;;;;3.96;80.07;98913.94;4793517;29;20091;-81
2022/01/04 00:20:34;;;;;;;10.85;1.17;;;;;;;3.77;80.14;98872.97;4823842;29;20031;-81
2022/01/04 00:22:59;;;;;;;11.15;1.92;;;;;;;3.89;80.80;98900.63;4810362;29;20035;-80
2022/01/04 00:25:25;;;;;;;11.48;1.85;;;;;;;3.85;80.15;98879.94;4825790;29;20425;-81
2022/01/04 00:27:50;;;;;;;9.35;1.80;;;;;;;3.85;80.73;98885.28;4827048;29;20046;-80
2022/01/04 00:30:16;;;;;;;12.75;1.50;;;;;;;3.91;81.07;98905.75;4794437;29;20034;-81
2022/01/04 00:32:41;;;;;;;13.68;1.85;;;;;;;3.76;81.13;98880.13;4812377;29;20034;-80
2022/01/04 00:35:08;;;;;;;14.95;2.10;;;;;;;3.76;81.74;98874.81;4826605;29;20087;-80
2022/01/04 00:37:33;;;;;;;15.00;2.03;;;;;;;3.88;82.67;98906.97;4810338;29;20368;-80
2022/01/04 00:39:59;;;;;;;12.90;2.72;;;;;;;3.86;82.16;98902.88;4826993;29;20117;-80
2022/01/04 00:42:24;;;;;;;10.30;2.00;;;;;;;3.86;81.94;98892.22;4801480;29;20040;-80
2022/01/04 00:44:50;;;;;;;10.93;1.40;;;;;;;3.91;81.64;98879.97;4817462;29;20073;-80
2022/01/04 00:47:16;;;;;;;12.60;1.45;;;;;;;3.85;81.98;98885.28;4826420;29;20038;-81
2022/01/04 00:49:41;;;;;;;8.38;1.35;;;;;;;3.86;81.49;98885.06;4830128;29;20029;-81
2022/01/04 00:52:07;;;;;;;11.20;1.77;;;;;;;3.69;82.20;98865.19;4829002;29;20062;-80
2022/01/04 00:54:34;;;;;;;6.70;1.13;;;;;;;3.80;80.96;98877.06;4823728;29;20036;-80
2022/01/04 00:56:59;;;;;;;14.05;1.63;;;;;;;3.80;80.71;98880.53;4833832;29;20049;-80
2022/01/04 00:59:24;;;;;;;15.90;1.88;;;;;;;3.88;82.12;98879.53;4825370;29;20461;-80
2022/01/04 01:01:50;;;;;;;13.27;1.98;;;;;;;3.61;82.36;98846.75;4805535;29;20031;-80
2022/01/04 01:04:15;;;;;;;15.55;1.83;;;;;;;3.49;80.63;98830.56;4811826;29;20042;-81
2022/01/04 01:06:41;;;;;;;7.65;1.77;;;;;;;3.66;80.11;98868.25;4810595;29;20172;-80
2022/01/04 01:09:07;;;;;;;10.75;1.83;;;;;;;3.82;81.11;98875.03;4796789;29;20041;-81
2022/01/04 01:11:32;;;;;;;11.38;1.48;;;;;;;3.79;80.07;98875.44;4823164;29;20379;-81
2022/01/04 01:13:57;;;;;;;10.75;1.40;;;;;;;3.73;80.41;98861.09;4825895;29;20030;-81
2022/01/04 01:16:24;;;;;;;11.50;1.40;;;;;;;3.73;80.73;98863.75;4811071;29;20034;-81
2022/01/04 01:18:50;;;;;;;10.43;1.50;;;;;;;3.78;79.85;98873.81;4788921;29;20062;-80
2022/01/04 01:21:15;;;;;;;10.15;2.15;;;;;;;3.57;79.76;98838.34;4810832;29;20069;-80
2022/01/04 01:23:41;;;;;;;12.15;1.80;;;;;;;3.72;80.01;98862.94;4826488;29;20117;-80
2022/01/04 01:26:08;;;;;;;9.70;1.42;;;;;;;3.78;80.56;98874.63;4814594;29;20033;-80
2022/01/04 01:28:35;;;;;;;12.10;1.50;;;;;;;3.76;80.83;98882.78;4792164;29;20374;-81
2022/01/04 01:31:00;;;;;;;17.05;2.35;;;;;;;3.78;82.44;98892.44;4775905;29;20068;-81
2022/01/04 01:33:27;;;;;;;20.88;1.88;;;;;;;3.71;83.03;98890.56;4805028;29;20046;-80
2022/01/04 01:35:53;;;;;;;15.68;1.73;;;;;;;3.68;82.47;98887.50;4809764;29;20034;-81
2022/01/04 01:38:19;;;;;;;17.45;1.73;;;;;;;3.61;82.72;98876.00;4826720;29;20461;-80
2022/01/04 01:40:45;;;;;;;10.80;1.60;;;;;;;3.68;83.49;98888.31;4829283;29;20034;-80
2022/01/04 01:43:11;;;;;;;14.77;1.58;;;;;;;3.70;83.35;98888.09;4829602;29;20043;-80
2022/01/04 01:45:37;;;;;;;10.35;1.70;;;;;;;3.58;83.34;98879.09;4812034;29;20037;-80
2022/01/04 01:48:03;;;;;;;15.40;1.83;;;;;;;3.61;83.25;98889.28;4811003;29;20104;-81
2022/01/04 01:50:28;;;;;;;12.15;1.65;;;;;;;3.66;83.79;98898.31;4792633;29;20034;-81
2022/01/04 01:52:55;;;;;;;16.73;1.88;;;;;;;3.55;83.51;98871.50;4783923;29;20038;-81
2022/01/04 01:55:22;;;;;;;14.30;1.70;;;;;;;3.66;84.03;98884.22;4793841;29;20125;-81
2022/01/04 01:57:49;;;;;;;16.75;1.80;;;;;;;3.64;83.87;98879.09;4792376;29;20455;-81
2022/01/04 02:00:17;;;;;;;13.25;1.67;;;;;;;3.60;84.82;98877.03;4807659;29;20055;-81
2022/01/04 02:02:42;;;;;;;17.42;2.15;;;;;;;3.60;84.45;98877.03;4820078;29;20179;-80
2022/01/04 02:05:08;;;;;;;17.08;2.45;;;;;;;3.60;84.34;98885.00;4839540;29;20117;-80
2022/01/04 02:07:35;;;;;;;14.50;2.22;;;;;;;3.54;83.82;98860.03;4803724;29;20034;-81
2022/01/04 02:10:04;;;;;;;10.80;2.63;;;;;;;3.52;84.00;98864.75;4804515;29;20039;-80
2022/01/04 02:12:33;;;;;;;14.13;2.05;;;;;;;3.64;83.23;98889.75;4790426;29;20066;-81
2022/01/04 02:14:59;;;;;;;13.15;1.80;;;;;;;3.62;83.32;98885.63;4800260;29;20018;-81
2022/01/04 02:17:25;;;;;;;14.20;1.70;;;;;;;3.68;83.95;98900.78;4810108;29;20489;-81
2022/01/04 02:19:53;;;;;;;14.80;2.33;;;;;;;3.52;83.95;98872.72;4802322;29;20047;-81
2022/01/04 02:22:18;;;;;;;15.25;1.88;;;;;;;3.69;84.64;98899.75;4799669;29;20027;-80
2022/01/04 02:24:44;;;;;;;13.65;1.85;;;;;;;3.66;84.41;98900.97;4815785;29;20076;-81
2022/01/04 02:27:10;;;;;;;16.35;2.15;;;;;;;3.68;85.13;98893.63;4823727;29;20046;-81
2022/01/04 02:29:36;;;;;;;16.40;2.47;;;;;;;3.75;85.06;98896.31;4826067;29;20046;-81
2022/01/04 02:32:02;;;;;;;17.00;2.03;;;;;;;3.45;85.42;98843.47;4820651;29;20034;-80
2022/01/04 02:34:27;;;;;;;22.75;2.72;;;;;;;3.81;84.70;98881.34;4822884;29;20034;-81
2022/01/04 02:36:52;;;;;;;10.98;1.70;;;;;;;3.68;84.74;98853.72;4809308;29;20484;-81
2022/01/04 02:39:18;;;;;;;15.95;2.22;;;;;;;3.82;85.75;98878.50;4819668;29;20034;-81
2022/01/04 02:41:43;;;;;;;19.33;2.67;;;;;;;3.83;85.48;98881.97;4801524;29;20039;-80
2022/01/04 02:44:08;;;;;;;20.80;2.40;;;;;;;3.61;85.77;98833.44;4788995;30;20031;-80
2022/01/04 02:46:34;;;;;;;19.05;2.15;;;;;;;3.86;86.46;98874.41;4791153;29;20028;-81
2022/01/04 02:48:59;;;;;;;17.83;2.20;;;;;;;3.81;86.01;98866.25;4792839;29;20039;-81
2022/01/04 02:51:24;;;;;;;19.38;2.35;;;;;;;3.80;86.44;98864.56;4807416;29;20031;-81
2022/01/04 02:53:50;;;;;;;18.27;2.15;;;;;;;3.80;86.86;98863.75;4807182;29;20122;-80
2022/01/04 02:56:15;;;;;;;22.35;2.40;;;;;;;3.81;86.87;98868.91;4807372;29;20031;-80
2022/01/04 02:58:41;;;;;;;14.65;1.98;;;;;;;3.67;87.62;98864.56;4775030;29;20051;-81
2022/01/04 03:01:07;;;;;;;22.88;2.97;;;;;;;3.53;88.66;98861.88;4804648;29;20053;-81
2022/01/04 03:03:33;;;;;;;20.02;2.33;;;;;;;3.30;89.36;98848.94;4775761;29;20050;-81
2022/01/04 03:05:59;;;;;;;21.90;2.80;;;;;;;3.35;90.43;98858.97;4805665;29;20031;-81
2022/01/04 03:08:24;;;;;;;19.65;2.33;;;;;;;3.29;90.65;98852.63;4809639;29;20528;-80
2022/01/04 03:10:50;;;;;;;20.60;3.10;;;;;;;3.17;90.83;98845.41;4824272;29;20035;-81
2022/01/04 03:13:16;;;;;;;17.58;2.10;;;;;;;3.15;91.02;98848.28;4798593;29;20453;-81
2022/01/04 03:15:45;;;;;;;23.35;3.05;;;;;;;2.94;92.15;98832.44;4810832;29;20029;-80
2022/01/04 03:18:11;;;;;;;21.10;2.58;;;;;;;2.99;92.33;98853.94;4805873;29;20075;-81
2022/01/04 03:20:36;;;;;;;20.92;2.60;;;;;;;2.94;92.92;98848.38;4821856;29;20038;-81
2022/01/04 03:23:02;;;;;;;18.42;2.20;;;;;;;2.74;92.80;98817.25;4808372;29;20066;-80
2022/01/04 03:25:28;;;;;;;15.18;1.80;;;;;;;2.81;93.05;98833.22;4805768;29;20109;-81
2022/01/04 03:27:53;;;;;;;24.85;2.53;;;;;;;2.72;93.52;98835.22;4814562;29;20043;-81
2022/01/04 03:30:19;;;;;;;18.65;2.72;;;;;;;2.67;93.99;98832.31;4761390;30;20179;-80
2022/01/04 03:32:44;;;;;;;17.75;2.13;;;;;;;2.50;93.13;98786.69;4761506;30;20035;-80
2022/01/04 03:35:10;;;;;;;21.73;2.60;;;;;;;2.38;94.05;98798.06;4792376;30;20165;-80
2022/01/04 03:37:36;;;;;;;23.35;2.13;;;;;;;2.50;94.43;98821.22;4807326;29;20030;-81
2022/01/04 03:40:02;;;;;;;20.88;2.08;;;;;;;2.44;94.23;98811.38;4808907;29;20039;-81
2022/01/04 03:42:28;;;;;;;18.05;2.85;;;;;;;2.46;94.64;98827.94;4817318;29;20026;-81
2022/01/04 03:44:53;;;;;;;18.55;2.35;;;;;;;2.30;94.68;98807.81;4842226;29;20034;-81
2022/01/04 03:47:19;;;;;;;16.17;2.33;;;;;;;2.40;95.02;98826.06;4811674;29;20083;-81
2022/01/04 03:49:45;;;;;;;22.25;2.67;;;;;;;2.33;95.64;98826.00;4843106;29;20472;-80
2022/01/04 03:52:10;;;;;;;22.05;2.25;;;;;;;2.08;95.39;98785.00;4793145;29;20373;-80
2022/01/04 03:54:35;;;;;;;24.48;2.63;;;;;;;2.33;95.77;98822.53;4827106;29;20034;-80
2022/01/04 03:57:01;;;;;;;21.00;2.05;;;;;;;2.29;95.84;98816.81;4826967;29;20038;-80
2022/01/04 03:59:26;;;;;;;17.63;2.35;;;;;;;1.98;96.20;98776.59;4793514;29;20446;-80
2022/01/04 04:01:51;;;;;;;24.70;2.33;;;;;;;2.25;96.57;98826.19;4811249;29;20034;-80
2022/01/04 04:04:19;;;;;;;20.42;2.80;;;;;;;2.23;96.53;98822.88;4804675;29;20037;-80
2022/01/04 04:06:45;;;;;;;21.30;2.42;;;;;;;2.24;96.43;98827.16;4808045;29;20031;-80
2022/01/04 04:09:12;;;;;;;18.15;1.95;;;;;;;1.75;96.50;98735.22;4822745;29;20035;-80
2022/01/04 04:11:37;;;;;;;15.43;1.80;;;;;;;2.35;96.72;98817.84;4814113;29;20068;-80
2022/01/04 04:14:03;;;;;;;19.83;2.40;;;;;;;2.28;95.91;98798.41;4808494;29;20062;-80
2022/01/04 04:16:28;;;;;;;18.67;2.10;;;;;;;2.24;96.60;98794.50;4822433;29;20410;-80
2022/01/04 04:18:53;;;;;;;14.13;2.20;;;;;;;2.27;95.85;98780.84;4822335;29;20517;-81
2022/01/04 04:21:19;;;;;;;17.25;2.15;;;;;;;2.42;95.70;98810.75;4809243;29;20077;-80
2022/01/04 04:23:44;;;;;;;14.68;1.73;;;;;;;2.33;95.48;98794.16;4793198;29;20117;-80
2022/01/04 04:26:10;;;;;;;18.20;1.90;;;;;;;2.37;96.17;98797.25;4807439;29;20126;-80
2022/01/04 04:28:35;;;;;;;23.70;2.53;;;;;;;2.28;96.03;98787.78;4823315;29;20046;-80
2022/01/04 04:31:03;;;;;;;16.33;1.88;;;;;;;2.10;96.39;98749.31;4822679;29;20035;-80
2022/01/04 04:33:28;;;;;;;13.93;2.05;;;;;;;2.31;97.05;98790.88;4800905;29;20062;-80
2022/01/04 04:35:54;;;;;;;15.85;1.95;;;;;;;2.13;96.54;98758.75;4793709;29;20034;-80
2022/01/04 04:38:19;;;;;;;15.90;2.00;;;;;;;2.13;97.03;98758.75;4813880;29;20376;-80
2022/01/04 04:40:45;;;;;;;18.38;2.08;;;;;;;2.24;97.23;98789.22;4799624;29;20053;-80
2022/01/04 04:43:10;;;;;;;17.40;2.30;;;;;;;1.84;97.46;98718.16;4825853;29;20039;-80
2022/01/04 04:45:36;;;;;;;17.65;1.90;;;;;;;2.28;96.79;98766.56;4808402;29;20042;-80
2022/01/04 04:48:01;;;;;;;16.38;1.67;;;;;;;2.34;96.33;98761.28;4820286;29;20073;-80
2022/01/04 04:50:26;;;;;;;16.83;1.85;;;;;;;2.29;96.52;98752.31;4793217;29;21336;-80
2022/01/04 04:52:52;;;;;;;14.63;2.30;;;;;;;2.41;96.68;98763.16;4822539;29;20031;-80
2022/01/04 04:55:18;;;;;;;24.35;2.25;;;;;;;2.37;96.75;98752.13;4820972;29;20082;-80
2022/01/04 04:57:43;;;;;;;24.75;2.25;;;;;;;2.41;96.89;98749.91;4808447;29;20130;-79
2022/01/04 05:00:10;;;;;;;15.02;2.20;;;;;;;2.40;96.90;98743.78;4823781;29;20137;-80
2022/01/04 05:02:36;;;;;;;16.67;1.95;;;;;;;2.26;97.43;98707.59;4812262;29;20034;-80
2022/01/04 05:05:02;;;;;;;18.55;2.00;;;;;;;2.41;96.94;98736.63;4809975;29;20046;-80
2022/01/04 05:07:27;;;;;;;15.40;2.67;;;;;;;2.38;97.19;98743.13;4811386;29;20030;-80
2022/01/04 05:09:53;;;;;;;17.05;2.22;;;;;;;2.20;97.39;98709.19;4809188;29;20406;-79
2022/01/04 05:12:18;;;;;;;21.15;2.05;;;;;;;2.16;98.20;98721.19;4816315;29;20034;-80
2022/01/04 05:14:46;;;;;;;18.75;2.53;;;;;;;2.33;97.84;98732.31;4810197;29;20026;-80
2022/01/04 05:17:13;;;;;;;11.93;1.95;;;;;;;2.37;98.15;98730.06;4807820;29;20213;-80
2022/01/04 05:19:39;;;;;;;16.23;1.95;;;;;;;2.33;98.35;98730.47;4809196;29;20057;-80
2022/01/04 05:22:04;;;;;;;16.50;1.90;;;;;;;2.31;98.24;98719.22;4818883;29;20398;-79
2022/01/04 05:24:30;;;;;;;18.38;2.47;;;;;;;2.29;98.63;98718.63;4827247;29;20038;-80
2022/01/04 05:26:55;;;;;;;19.15;2.35;;;;;;;2.27;98.82;98707.38;4818722;29;20042;-80
2022/01/04 05:29:21;;;;;;;18.27;1.73;;;;;;;2.15;98.88;98682.41;4808868;29;20054;-79
2022/01/04 05:31:46;;;;;;;25.20;3.30;;;;;;;2.15;99.80;98677.09;4826364;29;20022;-80
2022/01/04 05:34:12;;;;;;;14.98;1.90;;;;;;;2.19;99.48;98686.31;4827387;29;20372;-79
2022/01/04 05:36:37;;;;;;;16.77;1.63;;;;;;;2.23;99.25;98689.41;4807964;29;20107;-79
2022/01/04 05:39:03;;;;;;;19.80;2.10;;;;;;;2.20;99.34;98679.19;4823142;29;20041;-80
2022/01/04 05:41:29;;;;;;;20.08;2.55;;;;;;;2.25;99.91;98676.72;4780792;29;20531;-81
2022/01/04 05:43:54;;;;;;;18.05;2.35;;;;;;;2.27;99.42;98680.84;4829359;29;20034;-81
2022/01/04 05:46:20;;;;;;;25.80;2.75;;;;;;;2.31;99.19;98682.06;4810561;29;20050;-81
2022/01/04 05:48:45;;;;;;;16.05;1.55;;;;;;;2.34;99.43;98675.56;4809683;29;20380;-81
2022/01/04 05:51:10;;;;;;;18.52;1.90;;;;;;;2.38;99.05;98681.28;4828037;29;20053;-81
2022/01/04 05:53:36;;;;;;;17.85;2.20;;;;;;;1.98;98.84;98620.91;4799113;29;20101;-81
2022/01/04 05:56:01;;;;;;;27.38;2.88;;;;;;;2.35;98.62;98670.06;4812540;29;20030;-82
2022/01/04 05:58:27;;;;;;;15.00;1.98;;;;;;;2.26;99.08;98647.38;4820047;29;20054;-81
2022/01/04 06:00:52;;;;;;;14.75;1.67;;;;;;;2.34;98.81;98657.78;4811726;29;20129;-80
2022/01/04 06:03:17;;;;;;;14.48;1.70;;;;;;;2.30;99.05;98643.28;4823714;29;20426;-81
2022/01/04 06:05:43;;;;;;;18.38;2.40;;;;;;;2.48;99.03;98660.50;4807768;29;20033;-80
2022/01/04 06:08:08;;;;;;;20.92;2.13;;;;;;;2.33;98.69;98632.28;4810029;29;20476;-81
2022/01/04 06:10:39;;;;;;;15.23;2.42;;;;;;;2.45;99.01;98663.53;4826746;29;20037;-80
2022/01/04 06:15:30;;;;;;;17.23;1.85;;;;;;;2.46;98.84;98665.19;4809736;29;20180;-80
2022/01/04 06:17:57;;;;;;;17.90;2.53;;;;;;;2.46;99.41;98670.50;4811109;29;20071;-80
2022/01/04 06:20:23;;;;;;;19.30;2.47;;;;;;;2.38;98.95;98657.38;4810022;29;20113;-81
2022/01/04 06:22:52;;;;;;;14.50;2.30;;;;;;;2.42;99.13;98655.97;4813413;29;20053;-81
2022/01/04 06:25:20;;;;;;;24.80;2.15;;;;;;;2.50;98.17;98669.09;4835676;29;20102;-82
2022/01/04 06:27:48;;;;;;;16.02;1.67;;;;;;;2.54;97.85;98659.69;4834849;29;20109;-81
2022/01/04 06:30:19;;;;;;;19.55;2.13;;;;;;;2.57;97.31;98661.94;4829732;29;20045;-81
2022/01/04 06:32:46;;;;;;;14.23;1.58;;;;;;;2.55;96.97;98666.63;4820363;29;20035;-82
2022/01/04 06:35:13;;;;;;;18.83;2.17;;;;;;;2.48;96.88;98676.41;4823094;29;20034;-81
2022/01/04 06:37:43;;;;;;;15.52;2.00;;;;;;;2.53;97.18;98674.00;4828154;29;20042;-80
2022/01/04 06:40:10;;;;;;;22.48;2.35;;;;;;;2.45;97.31;98655.56;4825839;29;20520;-81
2022/01/04 06:42:36;;;;;;;16.50;2.03;;;;;;;2.52;97.13;98673.19;4813242;29;20368;-80
2022/01/04 06:45:02;;;;;;;14.98;2.17;;;;;;;2.49;96.94;98667.47;4810637;29;20023;-79
2022/01/04 06:47:27;;;;;;;14.98;2.42;;;;;;;2.30;97.08;98627.38;4822897;29;20045;-80
2022/01/04 06:49:53;;;;;;;15.25;2.05;;;;;;;2.43;97.02;98647.81;4811643;29;20030;-80
2022/01/04 06:52:18;;;;;;;19.00;2.13;;;;;;;2.61;97.51;98665.84;4814524;29;20057;-81
2022/01/04 06:54:44;;;;;;;15.85;1.88;;;;;;;2.43;97.73;98641.69;4832061;29;20072;-80
2022/01/04 06:57:09;;;;;;;13.38;2.20;;;;;;;2.53;97.86;98655.41;4811443;29;20409;-81
2022/01/04 06:59:34;;;;;;;22.17;2.45;;;;;;;2.66;97.50;98673.22;4824501;29;20058;-81
2022/01/04 07:02:00;;;;;;;17.15;2.25;;;;;;;2.67;97.77;98670.34;4809998;29;20094;-81
2022/01/04 07:04:26;;;;;;;15.57;2.38;;;;;;;2.61;97.60;98657.06;4824840;29;20061;-80
2022/01/04 07:06:51;;;;;;;14.13;1.98;;;;;;;2.65;98.16;98660.94;4806795;29;20034;-80
2022/01/04 07:09:17;;;;;;;18.42;1.95;;;;;;;2.62;97.58;98650.75;4809825;29;20045;-80
2022/01/04 07:11:42;;;;;;;17.38;1.90;;;;;;;2.68;97.22;98666.69;4807067;29;20066;-80
2022/01/04 07:14:08;;;;;;;16.77;2.05;;;;;;;2.50;97.90;98639.88;4792644;29;20696;-81
2022/01/04 07:16:33;;;;;;;17.20;2.78;;;;;;;2.41;97.24;98623.31;4819229;29;20038;-80
2022/01/04 07:18:59;;;;;;;21.73;2.33;;;;;;;2.65;97.41;98661.78;4806498;29;20030;-80
2022/01/04 07:21:24;;;;;;;17.88;1.98;;;;;;;2.53;97.66;98653.56;4808694;29;20106;-79
2022/01/04 07:23:50;;;;;;;16.73;2.00;;;;;;;2.53;97.80;98648.25;4824193;29;20531;-79
2022/01/04 07:26:17;;;;;;;14.15;1.98;;;;;;;2.52;97.72;98648.47;4810537;29;20385;-80
2022/01/04 07:28:47;;;;;;;23.77;2.50;;;;;;;2.54;97.86;98649.06;4831556;29;20479;-80
2022/01/04 07:31:14;;;;;;;21.38;2.08;;;;;;;2.56;97.35;98652.34;4825709;29;20342;-79
2022/01/04 07:33:40;;;;;;;18.10;2.63;;;;;;;2.48;97.31;98636.59;4792190;29;20042;-80
2022/01/04 07:36:06;;;;;;;13.95;2.42;;;;;;;2.47;97.42;98645.59;4823777;29;20026;-79
2022/01/04 07:38:33;;;;;;;19.55;2.17;;;;;;;2.54;97.24;98663.16;4806513;29;20086;-80
2022/01/04 07:40:58;;;;;;;14.18;2.25;;;;;;;2.53;97.69;98658.88;4806902;29;20035;-79
2022/01/04 07:43:24;;;;;;;17.52;2.30;;;;;;;2.38;97.15;98628.19;4819952;29;20042;-80
2022/01/04 07:45:51;;;;;;;20.17;2.15;;;;;;;2.49;97.26;98641.72;4789175;29;20405;-80
2022/01/04 07:48:16;;;;;;;19.40;2.00;;;;;;;2.53;97.21;98636.81;4809278;29;20037;-80
2022/01/04 07:50:42;;;;;;;20.92;3.15;;;;;;;2.57;97.37;98640.72;4804700;29;21910;-80
2022/01/04 07:53:08;;;;;;;11.27;1.83;;;;;;;2.66;97.52;98657.28;4809784;29;20114;-80
2022/01/04 07:55:34;;;;;;;18.27;2.05;;;;;;;2.64;97.06;98652.16;4823766;29;20073;-80
2022/01/04 07:58:00;;;;;;;16.05;2.25;;;;;;;2.59;97.24;98651.97;4821177;29;20033;-79
2022/01/04 08:00:25;;;;;;;17.42;2.22;;;;;;;2.56;97.80;98644.41;4818092;29;20046;-80
2022/01/04 08:02:52;;;;;;;23.38;2.25;;;;;;;2.64;97.69;98669.94;4824962;29;20030;-80
2022/01/04 08:05:18;;;;;;;18.15;2.45;;;;;;;2.66;97.67;98658.09;4804122;29;20034;-80
2022/01/04 08:07:44;;;;;;;21.52;2.53;;;;;;;2.68;98.52;98661.38;4822297;29;20030;-80
2022/01/04 08:10:11;;;;;;;12.70;2.28;;;;;;;2.52;97.86;98628.06;4805980;29;20030;-81
2022/01/04 08:12:36;;;;;;;23.05;2.88;;;;;;;2.32;97.84;98592.69;4831422;29;20045;-80
2022/01/04 08:15:06;;;;;;;21.73;2.88;;;;;;;2.69;98.14;98657.69;4814709;29;20027;-80
2022/01/04 08:17:31;;;;;;;15.95;2.17;;;;;;;2.60;98.25;98637.66;4811094;29;20027;-79
2022/01/04 08:19:58;;;;;;;13.68;1.90;;;;;;;2.64;98.53;98644.19;4813865;29;20053;-80
2022/01/04 08:22:23;;;;;;;21.75;2.20;;;;;;;2.56;99.05;98625.81;4808209;29;20025;-79
2022/01/04 08:24:49;;;;;;;20.63;2.15;;;;;;;2.30;98.84;98584.09;4813845;29;20035;-80
2022/01/04 08:27:14;;;;;;;20.33;2.22;;;;;;;2.50;98.70;98627.41;4829000;29;20040;-79
2022/01/04 08:29:40;;;;;;;24.48;2.42;;;;;;;2.62;99.29;98642.78;4808308;29;20038;-81
2022/01/04 08:32:05;;;;;;;16.98;2.50;;;;;;;2.50;99.06;98611.50;4812162;29;20042;-80
2022/01/04 08:34:31;;;;;;;18.17;2.45;;;;;;;2.65;99.39;98629.91;4831589;29;20042;-82
2022/01/04 08:36:56;;;;;;;12.20;1.85;;;;;;;2.50;98.83;98600.06;4820088;29;20038;-81
2022/01/04 08:39:26;;;;;;;22.95;2.30;;;;;;;2.46;98.96;98581.06;4840044;29;20023;-81
2022/01/04 08:42:01;;;;;;;16.30;2.20;;;;;;;2.67;99.07;98624.41;4823288;29;20030;-81
2022/01/04 08:44:27;;;;;;;15.25;2.15;;;;;;;2.74;98.70;98618.06;4847271;29;20026;-80
2022/01/04 08:46:52;;;;;;;19.05;2.30;;;;;;;2.64;98.99;98601.72;4806918;29;20512;-81
2022/01/04 08:49:18;;;;;;;16.40;1.92;;;;;;;2.78;98.71;98615.81;4807821;29;20034;-80
2022/01/04 08:51:44;;;;;;;26.08;2.13;;;;;;;2.81;98.72;98602.97;4806703;29;20034;-80
2022/01/04 08:54:09;;;;;;;18.05;1.92;;;;;;;2.68;99.23;98589.69;4822533;29;20031;-81
2022/01/04 08:56:35;;;;;;;20.50;2.20;;;;;;;2.83;99.62;98606.22;4821269;29;20038;-80
2022/01/04 08:59:03;;;;;;;14.23;1.70;;;;;;;2.70;99.62;98582.31;4824614;29;20073;-80
2022/01/04 09:01:29;;;;;;;17.65;2.58;;;;;;;2.76;99.71;98583.34;4808776;29;20030;-80
2022/01/04 09:03:54;;;;;;;17.08;2.33;;;;;;;2.92;99.51;98598.91;4792312;29;20033;-80
2022/01/04 09:06:22;;;;;;;15.93;2.28;;;;;;;2.87;99.68;98590.72;4807890;29;20085;-81
2022/01/04 09:08:47;;;;;;;20.33;2.78;;;;;;;2.89;99.66;98585.22;4811631;29;20030;-80
2022/01/04 09:11:15;;;;;;;19.15;2.45;;;;;;;2.98;99.96;98587.47;4814260;29;20038;-81
2022/01/04 09:13:43;;;;;;;15.13;2.50;;;;;;;3.02;99.80;98591.34;4810479;29;20048;-81
2022/01/04 09:18:46;;;;;;;17.40;2.25;;;;;;;2.93;99.78;98567.84;4829856;29;20041;-81
2022/01/04 09:21:18;;;;;;;14.80;1.90;;;;;;;3.12;99.95;98595.44;4847905;29;20077;-80
2022/01/04 09:23:45;;;;;;;22.70;2.65;;;;;;;3.13;99.66;98597.88;4810078;29;20026;-80
2022/01/04 09:26:12;;;;;;;25.40;4.40;;;;;;;3.09;99.79;98577.22;4810920;29;20045;-81
2022/01/04 09:28:37;;;;;;;21.13;2.38;;;;;;;2.93;99.42;98557.22;4815577;29;20160;-80
2022/01/04 09:31:04;;;;;;;20.95;2.88;;;;;;;3.19;99.33;98589.06;4817370;29;20064;-80
2022/01/04 09:33:29;;;;;;;23.73;2.30;;;;;;;3.16;99.45;98581.50;4832124;29;20035;-80
2022/01/04 09:35:55;;;;;;;21.27;2.15;;;;;;;3.01;99.74;98549.84;4827506;29;20518;-80
2022/01/04 09:38:20;;;;;;;18.65;2.65;;;;;;;3.15;99.81;98569.25;4812651;29;20129;-80
2022/01/04 09:40:49;;;;;;;22.52;2.33;;;;;;;3.26;99.36;98579.25;4812625;29;20043;-81
2022/01/04 09:43:15;;;;;;;14.13;2.45;;;;;;;3.27;99.49;98574.75;4838854;29;20463;-82
2022/01/04 09:45:41;;;;;;;17.08;2.15;;;;;;;3.36;99.50;98581.47;4811249;29;20063;-80
2022/01/04 09:48:07;;;;;;;17.10;2.75;;;;;;;3.41;98.90;98572.88;4810943;29;20130;-79
2022/01/04 09:50:35;;;;;;;18.48;3.05;;;;;;;3.44;98.85;98575.13;4807059;29;20034;-81
2022/01/04 09:53:01;;;;;;;22.88;2.60;;;;;;;3.44;99.28;98570.63;4823108;29;20078;-81
2022/01/04 09:55:27;;;;;;;18.20;2.30;;;;;;;3.35;98.55;98553.28;4822961;29;20022;-80
2022/01/04 09:57:53;;;;;;;11.07;2.00;;;;;;;3.49;99.12;98562.03;4812703;29;20030;-81
2022/01/04 10:00:18;;;;;;;15.27;2.15;;;;;;;3.15;99.10;98496.69;4833178;29;20069;-80
2022/01/04 10:02:46;;;;;;;18.95;2.13;;;;;;;3.57;98.50;98558.31;4810684;29;20468;-81
2022/01/04 10:05:12;;;;;;;15.00;2.13;;;;;;;3.62;98.73;98561.19;4823288;29;20042;-80
2022/01/04 10:07:38;;;;;;;14.52;1.60;;;;;;;3.63;98.40;98560.97;4829262;29;20030;-80
2022/01/04 10:10:05;;;;;;;17.17;1.92;;;;;;;3.67;98.10;98559.50;4807796;29;20030;-79
2022/01/04 10:12:48;;;;;;;13.52;1.65;;;;;;;3.60;97.92;98528.66;4825413;29;20038;-79
2022/01/04 10:15:30;;;;;;;13.32;1.67;;;;;;;3.76;97.88;98560.09;4822532;29;20097;-80
2022/01/04 10:17:56;;;;;;;20.45;2.10;;;;;;;3.83;97.60;98560.09;4822734;29;20031;-79
2022/01/04 10:20:22;;;;;;;21.27;2.30;;;;;;;3.89;96.82;98556.59;4825153;29;20046;-80
2022/01/04 10:22:50;;;;;;;19.02;2.03;;;;;;;3.89;96.84;98553.94;4827868;29;20418;-81
2022/01/04 10:25:16;;;;;;;14.93;2.10;;;;;;;3.99;95.94;98567.59;4827741;29;20038;-81
2022/01/04 10:27:51;;;;;;;17.10;2.25;;;;;;;4.02;96.84;98559.19;4818907;29;20506;-82
2022/01/04 10:30:28;;;;;;;18.33;2.53;;;;;;;4.16;95.78;98562.59;4824575;29;20178;-82
2022/01/04 10:33:06;;;;;;;13.15;2.03;;;;;;;4.15;95.79;98561.78;4812295;29;20072;-81
2022/01/04 10:35:59;;;;;;;18.13;2.92;;;;;;;4.26;96.50;98551.50;4834182;29;20517;-82
2022/01/04 10:38:34;;;;;;;20.65;2.95;;;;;;;4.24;96.37;98547.19;4831063;29;20041;-82
2022/01/04 10:41:09;;;;;;;18.67;2.42;;;;;;;4.21;96.74;98536.16;4823765;29;20028;-82
2022/01/04 10:43:37;;;;;;;;;;;;;;;4.37;96.18;98548.13;4816632;29;20031;-81
2022/01/04 10:46:04;;;;;;;20.45;2.75;;;;;;;4.37;96.26;98534.81;4831756;29;19917;-82
2022/01/04 10:48:41;;;;;;;16.75;1.88;;;;;;;4.44;96.90;98543.59;4820103;29;20031;-82
2022/01/04 10:51:08;;;;;;;17.17;2.17;;;;;;;4.24;96.25;98519.78;4821734;29;20103;-81
2022/01/04 10:53:54;;;;;;;14.23;1.98;;;;;;;4.38;97.00;98544.47;4812923;29;20128;-81
2022/01/04 10:56:26;;;;;;;16.73;2.10;;;;;;;4.32;96.81;98540.81;4819881;29;20449;-80
2022/01/04 10:58:52;;;;;;;16.15;2.42;;;;;;;4.29;97.64;98543.88;4820664;29;20081;-82
2022/01/04 11:01:25;;;;;;;24.30;2.42;;;;;;;4.30;96.90;98544.69;4811584;29;20407;-81
2022/01/04 11:04:00;;;;;;;22.92;2.38;;;;;;;4.24;97.71;98541.88;4817204;29;20682;-80
2022/01/04 11:06:36;;;;;;;15.80;2.10;;;;;;;4.24;97.85;98543.72;4818230;29;20465;-80
2022/01/04 11:09:04;;;;;;;19.83;2.50;;;;;;;4.21;97.28;98542.31;4815041;29;20022;-80
2022/01/04 11:11:29;;;;;;;15.82;2.08;;;;;;;4.20;97.58;98539.84;4805665;29;20066;-80
2022/01/04 11:13:55;;;;;;;14.52;1.88;;;;;;;4.17;97.53;98526.97;4792170;29;20066;-80
2022/01/04 11:16:24;;;;;;;21.10;2.58;;;;;;;4.00;96.60;98489.38;4792051;29;20419;-81
2022/01/04 11:18:52;;;;;;;13.25;2.10;;;;;;;3.96;96.50;98496.97;4825079;29;20041;-81
2022/01/04 11:21:28;;;;;;;11.98;1.95;;;;;;;4.10;97.22;98513.69;4802548;29;20038;-81
2022/01/04 11:23:55;;;;;;;17.90;2.28;;;;;;;4.05;97.03;98513.53;4822594;29;20090;-82
2022/01/04 11:26:21;;;;;;;13.90;1.95;;;;;;;4.17;97.17;98522.47;4821177;29;20038;-80
2022/01/04 11:28:49;;;;;;;13.18;1.80;;;;;;;4.22;96.30;98506.66;4825667;29;20042;-81
2022/01/04 11:31:37;;;;;;;12.68;2.30;;;;;;;4.13;96.72;98496.47;4825075;29;20095;-81
2022/01/04 11:34:15;;;;;;;15.52;2.70;;;;;;;4.17;96.46;98505.66;4829256;29;20010;-81
2022/01/04 11:36:48;;;;;;;18.63;2.25;;;;;;;4.04;96.31;98495.09;4817115;29;20023;-81
2022/01/04 11:39:33;;;;;;;16.85;2.33;;;;;;;4.03;96.50;98494.28;4833973;29;20030;-81